Flight Track Log - Related Links

Times and Time Zones

All times are in EDT time to prevent confusion due to time zone crossing. See the JBU33 flight status page for this flight to view local times or setup timezone preferences in your user account.

Time Position Orientation Groundspeed Altitude Reporting Facility
EDT Latitude Longitude Course Direction KTS MPH feet Rate Location/Type
Mon 01:24:00 PM 44.2272 -73.2307 190° South  Level FlightAware Approximate
Mon 01:24:38 PM 44.3992 -73.3728 196° South 245 282 9,100  Level Boston Center
Mon 01:25:00 PM 44.1507 -73.2685 195° South  Level FlightAware Approximate
Mon 01:25:39 PM 44.3528 -73.4503 230° Southwest 259 298 12,200  Level Boston Center
Mon 01:26:00 PM 44.0712 -73.2983 195° South  Level FlightAware Approximate
Mon 01:26:37 PM 44.3061 -73.5250 229° Southwest 259 298 14,700  Level Boston Center
Mon 01:27:00 PM 43.9912 -73.3252 194° South  Level FlightAware Approximate
Mon 01:27:37 PM 44.2206 -73.5467 190° South 264 304 15,800  Level Boston Center
Mon 01:28:00 PM 43.9113 -73.3522 196° South  Level FlightAware Approximate
Mon 01:28:38 PM 44.1244 -73.5622 187° South 333 383 17,700  Level Boston Center
Mon 01:29:00 PM 43.8322 -73.3839 196° South  Level FlightAware Approximate
Mon 01:29:39 PM 44.0203 -73.5833 188° South 380 437 19,800  Level Boston Center
Mon 01:30:39 PM 43.9094 -73.6014 187° South 404 465 21,900 1,983 Climbing Boston Center
Mon 01:31:40 PM 43.7947 -73.6222 187° South 415 478 23,800 1,881 Climbing Boston Center
Mon 01:32:37 PM 43.6800 -73.6458 188° South 420 483 25,600 1,119 Climbing Boston Center
Mon 01:33:38 PM 43.5608 -73.6636 186° South 431 496 26,000 200 Climbing Boston Center
Mon 01:34:37 PM 43.4439 -73.6842 187° South 431 496 26,000  Level Boston Center
Mon 01:35:38 PM 43.3272 -73.7017 186° South 426 490 26,000  Level Boston Center
Mon 01:36:38 PM 43.2100 -73.7247 188° South 426 490 26,000  Level Boston Center
Mon 01:37:39 PM 43.0806 -73.7478 187° South 426 490 26,000  Level Boston Center
Mon 01:38:39 PM 42.9617 -73.7678 187° South 426 490 26,000  Level Boston Center
Mon 01:39:37 PM 42.8467 -73.7908 188° South 431 496 26,000  Level Boston Center
Mon 01:40:37 PM 42.7278 -73.8081 186° South 424 488 26,000  Level Boston Center
Mon 01:41:38 PM 42.6108 -73.8139 182° South 424 488 26,000  Level Boston Center
Mon 01:42:38 PM 42.5089 -73.8144 180° South 422 486 26,000  Level Boston Center
Mon 01:43:39 PM 42.3919 -73.8147 180° South 422 486 26,000  Level Boston Center
Mon 01:44:39 PM 42.2733 -73.8178 181° South 422 486 26,000 -400 Level Boston Center
Mon 01:45:39 PM 42.1606 -73.8208 181° South 422 486 25,200 -1,017 Descending Boston Center
Mon 01:46:37 PM 42.0544 -73.8214 180° South 403 464 24,000 -610 Descending Boston Center
Mon 01:47:37 PM 41.9397 -73.8244 181° South 398 458 24,000 -611 Level Boston Center
Mon 01:49:24 PM 41.7531 -73.8992 197° South 393 452 22,300 -934 Descending New York Center
Mon 01:50:24 PM 41.6500 -73.9469 199° South 393 452 21,400 -1,000 Descending New York Center
Mon 01:51:24 PM 41.5444 -73.9947 199° South 387 445 20,300 -700 Descending New York Center
Mon 01:52:24 PM 41.4475 -74.0369 198° South 376 433 20,000 -150 Descending New York Center
Mon 01:53:24 PM 41.3650 -74.0856 204° Southwest 352 405 20,000  Level New York Center
Mon 01:54:24 PM 41.2925 -74.1456 212° Southwest 328 377 20,000  Level New York Center
Mon 01:55:24 PM 41.2306 -74.2003 214° Southwest 328 377 20,000  Level New York Center
Mon 01:56:24 PM 41.1475 -74.2622 209° Southwest 328 377 20,000  Level New York Center
Mon 01:57:24 PM 41.0747 -74.3300 215° Southwest 323 372 20,000 -340 Level New York Center
Mon 01:58:10 PM 41.0000 -74.3667 200° South 330 380 19,400 -566 Descending New York TRACON
Mon 01:59:10 PM 40.9500 -74.2667 123° Southeast 355 409 19,000 -200 Descending New York TRACON
Mon 02:00:10 PM 40.8833 -74.1500 127° Southeast 353 406 19,000 -500 Level New York TRACON
Mon 02:01:10 PM 40.8333 -74.0667 128° Southeast 337 388 18,000 -1,300 Descending New York TRACON
Mon 02:02:10 PM 40.7500 -74.0167 156° South 314 361 16,400 -1,850 Descending New York TRACON
Mon 02:03:10 PM 40.6667 -73.9833 163° South 325 374 14,300 -1,700 Descending New York TRACON
Mon 02:04:10 PM 40.5833 -73.9500 163° South 319 367 13,000 -650 Descending New York TRACON
Mon 02:05:10 PM 40.5000 -73.9167 163° South 310 357 13,000 -150 Level New York TRACON
Mon 02:06:10 PM 40.4167 -73.9000 171° South 308 354 12,700 -950 Descending New York TRACON
Mon 02:07:10 PM 40.3333 -73.8667 163° South 295 339 11,100 -1,700 Descending New York TRACON
Mon 02:08:10 PM 40.2500 -73.8667 180° South 296 341 9,300 -1,714 Descending New York TRACON
Mon 02:09:16 PM 40.1667 -73.8167 155° Southeast 305 351 7,500 -1,800 Descending New York TRACON
Mon 02:10:10 PM 40.2000 -73.7333 62° Northeast 295 339 5,700 -1,842 Descending New York TRACON
Mon 02:11:10 PM 40.2500 -73.6667 45° Northeast 278 320 4,000 -1,350 Descending New York TRACON
Mon 02:12:10 PM 40.3000 -73.6167 37° Northeast 266 306 3,000 -500 Descending New York TRACON
Mon 02:13:10 PM 40.3833 -73.6167 360° North 261 300 3,000  Level New York TRACON
Mon 02:14:16 PM 40.4500 -73.6000 11° North 217 250 3,000 -190 Level New York TRACON
Mon 02:15:16 PM 40.5000 -73.6000 360° North 215 247 2,600 -500 Descending New York TRACON
Mon 02:16:16 PM 40.5667 -73.6167 349° North 200 230 2,000 -450 Descending New York TRACON
Mon 02:17:16 PM 40.6000 -73.6667 311° West 190 219 1,700 -550 Descending New York TRACON
Mon 02:18:16 PM 40.6167 -73.7167 294° West 140 161 900 -800 Descending New York TRACON
Mon 02:20:00 PM 40.6333 -73.7667 37° Northeast  Level FlightAware Approximate

Login

Don't have an account? Register now (free) for customized features, flight alerts, and more!